Time;durP1;ratioP1;P1;durP2;ratioP2;P2;SDS_P1;SDS_P2;PMS_P1;PMS_P2;Temp;Humidity;BMP_temperature;BMP_pressure;BME280_temperature;BME280_humidity;BME280_pressure;Samples;Min_cycle;Max_cycle;Signal;HPM_P1;HPM_P2
2023/03/27 05:03:47;;;;;;;8.05;1.95;;;3.50;99.90;;;;;;4961605;29;20074;-78
2023/03/27 05:06:31;;;;;;;13.60;2.50;;;3.40;99.90;;;;;;4947295;29;20043;-74
2023/03/27 05:08:58;;;;;;;8.25;2.65;;;3.40;99.90;;;;;;4945802;28;20254;-75
2023/03/27 05:11:35;;;;;;;7.85;1.83;;;3.40;99.90;;;;;;4938451;29;20023;-77
2023/03/27 05:14:05;;;;;;;10.90;1.80;;;3.40;99.90;;;;;;4950048;28;20027;-78
2023/03/27 05:16:34;;;;;;;9.55;2.28;;;3.30;99.90;;;;;;4935822;29;20035;-74
2023/03/27 05:19:02;;;;;;;8.52;1.80;;;3.30;99.90;;;;;;4947113;28;20067;-75
2023/03/27 05:21:38;;;;;;;8.48;1.73;;;3.30;99.90;;;;;;4948144;29;20034;-75
2023/03/27 05:24:08;;;;;;;11.27;1.70;;;3.30;99.90;;;;;;4947422;28;20031;-75
2023/03/27 05:26:34;;;;;;;12.85;2.17;;;3.20;99.90;;;;;;4947860;29;20082;-76
2023/03/27 05:29:00;;;;;;;7.97;1.70;;;3.20;99.90;;;;;;4964262;28;20023;-76
2023/03/27 05:31:27;;;;;;;8.52;1.58;;;3.30;99.90;;;;;;4948013;29;20027;-76
2023/03/27 05:34:01;;;;;;;10.68;1.70;;;3.30;99.90;;;;;;4947396;28;20028;-75
2023/03/27 05:36:30;;;;;;;7.90;1.90;;;3.20;99.90;;;;;;4943468;29;20093;-76
2023/03/27 05:38:56;;;;;;;6.18;1.80;;;3.20;99.90;;;;;;4946935;28;20027;-74
2023/03/27 05:41:48;;;;;;;7.88;1.50;;;3.10;99.90;;;;;;4964317;28;20039;-75
2023/03/27 05:44:21;;;;;;;8.50;1.70;;;3.10;99.90;;;;;;4964372;28;20031;-75
2023/03/27 05:46:46;;;;;;;6.25;1.58;;;3.10;99.90;;;;;;4947348;29;20035;-75
2023/03/27 05:49:22;;;;;;;8.35;2.05;;;3.10;99.90;;;;;;4947376;29;20023;-76
2023/03/27 05:51:53;;;;;;;12.63;1.52;;;3.10;99.90;;;;;;4947006;29;20042;-77
2023/03/27 05:54:20;;;;;;;7.03;1.42;;;3.10;99.90;;;;;;4947248;29;20033;-76
2023/03/27 05:57:07;;;;;;;8.15;1.48;;;3.00;99.90;;;;;;4947024;28;20027;-75
2023/03/27 05:59:33;;;;;;;7.15;2.22;;;3.00;99.90;;;;;;4947429;29;20027;-75
2023/03/27 06:02:16;;;;;;;8.68;1.85;;;3.00;99.90;;;;;;4943089;29;20329;-75
2023/03/27 06:04:48;;;;;;;8.05;1.67;;;3.00;99.90;;;;;;4944308;29;20046;-74
2023/03/27 06:07:25;;;;;;;7.38;1.55;;;3.10;99.90;;;;;;4944147;29;20059;-75
2023/03/27 06:09:51;;;;;;;11.60;2.13;;;3.10;99.90;;;;;;4936400;29;20024;-76
2023/03/27 06:12:32;;;;;;;12.20;1.98;;;3.10;99.90;;;;;;4944145;29;20102;-76
2023/03/27 06:15:08;;;;;;;10.60;2.28;;;3.20;99.90;;;;;;4943421;29;20067;-75
2023/03/27 06:17:46;;;;;;;7.30;1.13;;;3.10;99.90;;;;;;4924830;29;20116;-76
2023/03/27 06:20:13;;;;;;;8.90;1.50;;;3.20;99.90;;;;;;4939269;29;20040;-74
2023/03/27 06:22:54;;;;;;;6.93;1.48;;;3.20;99.90;;;;;;4940081;29;20102;-76
2023/03/27 06:25:27;;;;;;;9.43;1.50;;;3.20;99.90;;;;;;4932765;29;20062;-77
2023/03/27 06:27:52;;;;;;;8.45;2.13;;;3.30;99.90;;;;;;4938281;29;20043;-75
2023/03/27 06:30:21;;;;;;;10.45;1.90;;;3.30;99.90;;;;;;4936507;29;20098;-76
2023/03/27 06:33:08;;;;;;;13.55;2.15;;;3.30;99.90;;;;;;4943812;29;20046;-75
2023/03/27 06:35:34;;;;;;;9.15;1.58;;;3.30;99.90;;;;;;4944926;29;20079;-74
2023/03/27 06:38:16;;;;;;;8.75;1.55;;;3.20;99.90;;;;;;4943280;29;20035;-73
2023/03/27 06:40:42;;;;;;;8.07;1.55;;;3.30;99.90;;;;;;4943837;29;20142;-76
2023/03/27 06:43:10;;;;;;;8.82;1.67;;;3.30;99.90;;;;;;4943165;29;20043;-76
2023/03/27 06:45:48;;;;;;;12.35;1.58;;;3.40;99.90;;;;;;4943441;29;20107;-75
2023/03/27 06:48:33;;;;;;;9.35;1.50;;;3.40;99.90;;;;;;4944755;29;20324;-75
2023/03/27 06:51:01;;;;;;;5.80;1.48;;;3.50;99.90;;;;;;4943230;29;20028;-75
2023/03/27 06:53:28;;;;;;;12.05;1.70;;;3.60;99.90;;;;;;4943462;29;20109;-74
2023/03/27 06:55:55;;;;;;;9.48;1.58;;;3.60;99.90;;;;;;4943863;29;20042;-73
2023/03/27 06:58:22;;;;;;;13.18;1.90;;;3.60;99.90;;;;;;4940218;29;20036;-74
2023/03/27 07:00:48;;;;;;;8.10;1.67;;;3.70;99.90;;;;;;4942078;29;20027;-74
2023/03/27 07:03:32;;;;;;;8.20;1.50;;;3.80;99.90;;;;;;4943138;29;20043;-73
2023/03/27 07:06:30;;;;;;;9.88;1.42;;;3.80;99.90;;;;;;4948396;29;20035;-75
2023/03/27 07:09:02;;;;;;;6.97;2.10;;;3.80;99.90;;;;;;4924893;29;20032;-77
2023/03/27 07:11:29;;;;;;;9.15;1.42;;;3.90;99.90;;;;;;4943278;29;20032;-76
2023/03/27 07:13:59;;;;;;;7.43;1.40;;;3.80;99.90;;;;;;4942828;29;20305;-77
2023/03/27 07:16:27;;;;;;;8.02;1.25;;;3.90;99.90;;;;;;4944863;29;20085;-76
2023/03/27 07:18:52;;;;;;;8.20;1.35;;;4.00;99.90;;;;;;4947113;29;20024;-74
2023/03/27 07:21:19;;;;;;;10.77;1.42;;;3.90;99.90;;;;;;4927603;29;20075;-78
2023/03/27 07:23:45;;;;;;;8.93;2.40;;;4.00;99.90;;;;;;4920264;29;20031;-74
2023/03/27 07:26:13;;;;;;;10.48;1.50;;;4.10;99.90;;;;;;4946306;29;20023;-75
2023/03/27 07:29:09;;;;;;;6.97;1.33;;;4.10;99.90;;;;;;4948305;29;20051;-74
2023/03/27 07:31:36;;;;;;;6.30;1.45;;;4.20;99.90;;;;;;4946884;29;20098;-74
2023/03/27 07:34:02;;;;;;;6.20;1.27;;;4.20;99.90;;;;;;4946536;29;20055;-75
2023/03/27 07:36:48;;;;;;;10.13;1.40;;;4.50;99.90;;;;;;4947558;29;20043;-77
2023/03/27 07:39:14;;;;;;;9.13;1.75;;;4.80;99.90;;;;;;4946173;29;20023;-75
2023/03/27 07:41:40;;;;;;;9.25;1.30;;;4.70;99.90;;;;;;4947686;29;20166;-79
2023/03/27 07:44:19;;;;;;;9.18;1.50;;;4.90;99.40;;;;;;4945766;29;20027;-74
2023/03/27 07:46:55;;;;;;;7.13;1.75;;;4.80;99.40;;;;;;4946800;29;20044;-75
2023/03/27 07:49:20;;;;;;;6.50;1.30;;;4.90;99.40;;;;;;4945794;29;20024;-76
2023/03/27 07:51:46;;;;;;;5.85;1.38;;;5.00;99.40;;;;;;4943498;29;20206;-76
2023/03/27 07:54:14;;;;;;;8.35;1.48;;;4.90;98.50;;;;;;4940681;29;20031;-75
2023/03/27 07:56:46;;;;;;;5.25;1.30;;;4.90;98.80;;;;;;4931543;29;20016;-78
2023/03/27 07:59:31;;;;;;;6.65;1.90;;;5.00;98.60;;;;;;4946535;29;20202;-74
2023/03/27 08:02:04;;;;;;;8.95;1.50;;;5.10;98.10;;;;;;4945825;29;20048;-74
2023/03/27 08:04:35;;;;;;;9.52;1.60;;;5.10;98.10;;;;;;4939835;29;20016;-73
2023/03/27 08:07:10;;;;;;;7.45;1.80;;;5.10;97.60;;;;;;4945779;28;20138;-74
2023/03/27 08:09:36;;;;;;;6.65;1.35;;;5.20;97.20;;;;;;4958756;28;20054;-73
2023/03/27 08:12:02;;;;;;;7.15;1.58;;;5.10;96.70;;;;;;4941271;29;20353;-74
2023/03/27 08:14:30;;;;;;;7.88;1.20;;;5.10;96.60;;;;;;4938175;29;20028;-75
2023/03/27 08:16:58;;;;;;;5.20;1.17;;;5.10;96.70;;;;;;4942157;29;20038;-75
2023/03/27 08:19:26;;;;;;;8.43;1.45;;;5.10;96.30;;;;;;4958802;28;20024;-73
2023/03/27 08:21:57;;;;;;;7.85;1.50;;;5.20;96.30;;;;;;4958630;28;20069;-75
2023/03/27 08:24:23;;;;;;;12.27;1.48;;;5.30;96.10;;;;;;4938842;29;20086;-73
2023/03/27 08:27:06;;;;;;;7.35;1.42;;;5.30;95.60;;;;;;4944786;29;20242;-75
2023/03/27 08:29:37;;;;;;;7.07;1.33;;;5.30;96.00;;;;;;4945562;29;20031;-74
2023/03/27 08:32:04;;;;;;;5.32;1.52;;;5.30;95.40;;;;;;4944940;29;20038;-77
2023/03/27 08:34:30;;;;;;;6.00;1.55;;;5.40;94.80;;;;;;4938674;29;20050;-75
2023/03/27 08:36:56;;;;;;;9.10;1.70;;;5.30;95.20;;;;;;4942298;29;20028;-74
2023/03/27 08:39:30;;;;;;;5.95;1.00;;;5.30;95.80;;;;;;4958785;28;20206;-76
2023/03/27 08:42:03;;;;;;;7.70;1.80;;;5.40;94.30;;;;;;4940898;29;20043;-75
2023/03/27 08:44:34;;;;;;;6.72;1.25;;;5.30;94.50;;;;;;4938776;29;20023;-77
2023/03/27 08:47:14;;;;;;;5.35;1.48;;;5.30;95.10;;;;;;4944986;29;20094;-76
2023/03/27 08:50:30;;;;;;;5.00;1.10;;;5.30;94.40;;;;;;4955722;29;20036;-75
2023/03/27 08:54:11;;;;;;;9.45;1.17;;;5.40;94.60;;;;;;4941562;29;20071;-75
2023/03/27 08:56:37;;;;;;;8.25;1.20;;;5.50;93.90;;;;;;4876139;29;20234;-74
2023/03/27 08:59:10;;;;;;;6.70;1.10;;;5.60;94.30;;;;;;4870996;29;20133;-76
2023/03/27 09:01:40;;;;;;;8.18;1.35;;;5.60;93.70;;;;;;4886919;29;20111;-75
2023/03/27 09:04:36;;;;;;;5.68;0.80;;;5.50;93.80;;;;;;4870632;29;20362;-74
2023/03/27 09:07:27;;;;;;;6.15;1.10;;;5.60;93.20;;;;;;4867837;29;20032;-75
2023/03/27 09:10:19;;;;;;;6.78;1.35;;;5.60;93.10;;;;;;4871076;29;20342;-74
2023/03/27 09:13:14;;;;;;;5.03;1.10;;;5.50;92.90;;;;;;4871645;29;20061;-74
2023/03/27 09:16:03;;;;;;;5.70;1.23;;;5.60;92.40;;;;;;4871438;29;20053;-77
2023/03/27 09:18:35;;;;;;;6.07;1.27;;;5.60;92.90;;;;;;4871695;29;20048;-77
2023/03/27 09:21:28;;;;;;;6.38;0.95;;;5.90;92.40;;;;;;4871430;29;20059;-77
2023/03/27 09:24:00;;;;;;;6.68;0.90;;;6.00;92.00;;;;;;4871802;29;20386;-75
2023/03/27 09:26:44;;;;;;;4.10;1.05;;;6.00;91.70;;;;;;4896903;29;20055;-76
2023/03/27 09:29:36;;;;;;;4.15;0.90;;;5.90;91.70;;;;;;4955948;28;20016;-75
2023/03/27 09:32:22;;;;;;;7.38;0.90;;;5.90;91.70;;;;;;4944828;29;20127;-75
2023/03/27 09:34:48;;;;;;;7.45;1.45;;;5.80;91.60;;;;;;4945423;29;20051;-77
2023/03/27 09:37:16;;;;;;;5.55;1.00;;;5.80;91.80;;;;;;4924833;29;20024;-74
2023/03/27 09:39:48;;;;;;;6.95;1.10;;;5.90;92.10;;;;;;4941170;29;20019;-75
2023/03/27 09:42:32;;;;;;;5.90;0.80;;;6.10;91.50;;;;;;4943486;29;20250;-75
2023/03/27 09:45:02;;;;;;;5.78;2.00;;;6.00;90.10;;;;;;4945111;29;20039;-77
2023/03/27 09:47:49;;;;;;;6.68;1.40;;;6.00;91.20;;;;;;4941402;29;20024;-76
2023/03/27 09:50:24;;;;;;;6.13;1.15;;;6.00;91.70;;;;;;4944679;29;20075;-74
2023/03/27 09:53:18;;;;;;;6.43;1.00;;;6.30;91.00;;;;;;4944265;29;20046;-74
2023/03/27 09:56:04;;;;;;;6.05;0.65;;;6.40;89.80;;;;;;4944160;29;20035;-74
2023/03/27 09:58:39;;;;;;;6.30;1.08;;;6.40;90.40;;;;;;4944358;29;20348;-74
2023/03/27 10:01:12;;;;;;;4.38;0.93;;;6.70;90.30;;;;;;4925370;29;20036;-75
2023/03/27 10:03:47;;;;;;;6.55;1.02;;;6.90;89.50;;;;;;4943754;29;20098;-75
2023/03/27 10:06:22;;;;;;;7.20;1.27;;;7.00;88.80;;;;;;4944338;29;20059;-74
2023/03/27 10:09:05;;;;;;;8.10;1.13;;;7.10;88.10;;;;;;4943670;29;20036;-74
2023/03/27 10:11:38;;;;;;;3.92;0.82;;;7.10;86.70;;;;;;4944051;29;20075;-74
2023/03/27 10:14:15;;;;;;;3.17;0.90;;;7.00;85.20;;;;;;4943161;29;20306;-75
2023/03/27 10:16:42;;;;;;;3.85;0.85;;;7.10;85.10;;;;;;4943545;29;20027;-74
2023/03/27 10:19:25;;;;;;;5.00;0.70;;;7.30;86.00;;;;;;4943416;29;20397;-76
2023/03/27 10:21:55;;;;;;;4.38;0.77;;;7.80;85.80;;;;;;4943765;29;20477;-77
2023/03/27 10:24:34;;;;;;;4.13;1.10;;;8.00;81.90;;;;;;4943544;29;20246;-75
2023/03/27 10:27:32;;;;;;;5.10;1.00;;;8.00;82.40;;;;;;4959783;28;20409;-76
2023/03/27 10:30:26;;;;;;;6.07;1.15;;;7.90;81.50;;;;;;4953025;29;20182;-76
2023/03/27 10:32:55;;;;;;;6.20;1.05;;;7.40;81.90;;;;;;4943688;29;20344;-76
2023/03/27 10:35:33;;;;;;;3.33;0.88;;;7.30;80.50;;;;;;4944043;29;20027;-75
2023/03/27 10:38:17;;;;;;;3.90;1.08;;;7.40;80.90;;;;;;4943179;29;20050;-76
2023/03/27 10:40:51;;;;;;;6.38;0.85;;;7.70;81.10;;;;;;4943976;29;20020;-75
2023/03/27 10:43:38;;;;;;;5.22;0.95;;;8.00;77.80;;;;;;4943984;29;20384;-75
2023/03/27 10:46:12;;;;;;;4.28;0.75;;;7.90;76.00;;;;;;4942913;29;20305;-75
2023/03/27 10:48:40;;;;;;;3.50;0.77;;;7.90;76.80;;;;;;4924333;29;20103;-76
2023/03/27 10:51:31;;;;;;;3.20;0.77;;;7.80;77.90;;;;;;4941179;29;20055;-75
2023/03/27 10:54:11;;;;;;;5.38;1.35;;;7.70;79.00;;;;;;4947554;29;20024;-75
2023/03/27 10:57:01;;;;;;;4.50;0.70;;;7.80;78.30;;;;;;4947725;29;20037;-75
2023/03/27 10:59:49;;;;;;;5.03;0.93;;;8.00;77.90;;;;;;4945100;29;20258;-75
2023/03/27 11:02:56;;;;;;;3.83;1.00;;;8.10;75.50;;;;;;4946212;29;20102;-76
2023/03/27 11:05:47;;;;;;;5.00;0.70;;;8.30;76.60;;;;;;4946543;29;20050;-76
2023/03/27 11:08:37;;;;;;;6.50;1.05;;;8.90;76.40;;;;;;4942040;29;20335;-76
2023/03/27 11:11:18;;;;;;;5.03;1.35;;;9.10;77.30;;;;;;4942664;29;20027;-80
2023/03/27 11:13:47;;;;;;;2.53;0.70;;;9.10;76.70;;;;;;4947295;29;20329;-76
2023/03/27 11:16:36;;;;;;;5.32;0.90;;;9.10;75.00;;;;;;4946729;29;20032;-78
2023/03/27 11:19:45;;;;;;;5.00;0.95;;;9.50;76.20;;;;;;4946671;29;20047;-76
2023/03/27 11:22:55;;;;;;;4.03;0.95;;;11.00;70.50;;;;;;4947998;29;20107;-77
2023/03/27 11:25:45;;;;;;;2.80;0.60;;;10.50;69.30;;;;;;4946738;29;20072;-76
2023/03/27 11:28:42;;;;;;;5.13;0.70;;;10.10;69.80;;;;;;4961888;28;20067;-78
2023/03/27 11:31:30;;;;;;;2.38;0.50;;;9.80;71.60;;;;;;4902866;29;20322;-77
2023/03/27 11:34:05;;;;;;;3.45;0.73;;;11.20;70.10;;;;;;4946402;29;20035;-75
2023/03/27 11:36:58;;;;;;;3.13;0.70;;;12.60;65.60;;;;;;4942777;29;20035;-78
2023/03/27 11:39:57;;;;;;;3.53;0.70;;;12.30;65.10;;;;;;4928991;29;20249;-77
2023/03/27 11:42:26;;;;;;;6.03;1.25;;;11.30;67.80;;;;;;4945959;29;20031;-79
2023/03/27 11:44:52;;;;;;;6.40;0.95;;;10.00;71.00;;;;;;4935292;29;20078;-77
2023/03/27 11:48:02;;;;;;;4.32;0.90;;;9.40;73.60;;;;;;4946082;28;20051;-77
2023/03/27 11:51:00;;;;;;;5.70;1.10;;;9.60;74.50;;;;;;4928667;29;20039;-78
2023/03/27 11:53:47;;;;;;;4.88;0.85;;;9.40;74.60;;;;;;4948626;28;20024;-77
2023/03/27 11:56:28;;;;;;;5.82;1.05;;;9.80;74.80;;;;;;4946243;29;20032;-77
2023/03/27 11:59:09;;;;;;;4.25;0.80;;;10.80;74.00;;;;;;4944905;29;20099;-78
2023/03/27 12:01:50;;;;;;;3.15;0.70;;;12.50;68.50;;;;;;4948754;28;20039;-77
2023/03/27 12:04:26;;;;;;;3.45;0.70;;;13.90;66.10;;;;;;4957002;28;20032;-78
2023/03/27 12:07:40;;;;;;;3.90;1.10;;;15.20;62.20;;;;;;4930302;29;20302;-76
2023/03/27 12:10:29;;;;;;;5.45;0.88;;;16.20;60.00;;;;;;4945816;29;20043;-77
2023/03/27 12:13:05;;;;;;;2.85;0.57;;;14.70;60.90;;;;;;4962458;28;20073;-77
2023/03/27 12:15:40;;;;;;;5.13;1.08;;;15.60;61.80;;;;;;4949958;29;20321;-76
2023/03/27 12:18:25;;;;;;;3.70;0.80;;;15.60;58.80;;;;;;4933058;29;20027;-75
2023/03/27 12:20:59;;;;;;;3.53;0.70;;;16.00;56.90;;;;;;4966231;28;20023;-76
2023/03/27 12:24:11;;;;;;;2.33;0.38;;;15.70;56.30;;;;;;4949204;29;20082;-75
2023/03/27 12:27:22;;;;;;;3.17;0.60;;;15.50;56.50;;;;;;4942230;28;20325;-78
2023/03/27 12:30:34;;;;;;;2.58;0.52;;;16.20;56.60;;;;;;4949189;29;20023;-73
2023/03/27 12:33:30;;;;;;;4.47;0.60;;;16.50;55.80;;;;;;4951787;28;20047;-79
2023/03/27 12:36:00;;;;;;;4.38;0.80;;;17.30;55.40;;;;;;4949166;29;20309;-75
2023/03/27 12:38:27;;;;;;;3.47;0.77;;;17.10;54.80;;;;;;4965383;28;20047;-76
2023/03/27 12:41:04;;;;;;;3.63;0.50;;;16.00;55.00;;;;;;4936536;29;20099;-76
2023/03/27 12:43:46;;;;;;;2.88;0.50;;;16.30;54.60;;;;;;4935447;29;20107;-75
2023/03/27 12:46:22;;;;;;;4.93;0.47;;;16.00;53.70;;;;;;4945086;28;20217;-74
2023/03/27 12:48:59;;;;;;;5.53;0.85;;;15.50;54.60;;;;;;4948728;29;20043;-75
2023/03/27 12:51:52;;;;;;;6.82;1.40;;;15.20;56.40;;;;;;4948084;29;20038;-75
2023/03/27 12:54:38;;;;;;;3.17;0.50;;;15.30;56.90;;;;;;4948444;28;20070;-77
2023/03/27 12:57:24;;;;;;;4.20;0.70;;;14.90;56.90;;;;;;4965020;29;20317;-77
2023/03/27 12:59:57;;;;;;;3.90;0.82;;;15.30;57.50;;;;;;4948418;29;20039;-75
2023/03/27 13:02:45;;;;;;;3.75;0.88;;;14.30;59.60;;;;;;4941406;29;20436;-76
2023/03/27 13:05:55;;;;;;;3.25;0.45;;;13.40;61.00;;;;;;4938194;29;20038;-75
2023/03/27 13:08:53;;;;;;;4.15;0.77;;;12.30;62.10;;;;;;4890152;29;20095;-74
2023/03/27 13:11:48;;;;;;;4.63;0.70;;;13.00;62.10;;;;;;4942621;29;20028;-76
2023/03/27 13:14:43;;;;;;;4.07;0.80;;;12.80;61.60;;;;;;4939865;28;20031;-76
2023/03/27 13:17:45;;;;;;;5.93;0.95;;;12.40;63.10;;;;;;4947697;29;20208;-76
2023/03/27 13:20:36;;;;;;;2.63;0.65;;;12.00;64.20;;;;;;4938038;29;20027;-75
2023/03/27 13:23:14;;;;;;;4.75;0.85;;;11.40;65.40;;;;;;4942520;29;20210;-75
2023/03/27 13:26:00;;;;;;;3.45;0.50;;;11.00;66.20;;;;;;4938234;29;20031;-76
2023/03/27 13:28:34;;;;;;;4.80;0.93;;;10.20;70.00;;;;;;4921933;29;20305;-75
2023/03/27 13:31:14;;;;;;;3.58;0.80;;;9.60;76.50;;;;;;4943852;28;20036;-76
2023/03/27 13:34:27;;;;;;;5.32;1.10;;;8.90;80.80;;;;;;4945096;28;20294;-75
2023/03/27 13:37:10;;;;;;;5.93;0.80;;;8.20;90.80;;;;;;4941415;29;20094;-75
2023/03/27 13:40:17;;;;;;;6.65;0.98;;;7.80;93.20;;;;;;4964315;28;20024;-74
2023/03/27 13:42:44;;;;;;;3.33;0.95;;;7.90;93.10;;;;;;4946966;28;20042;-74
2023/03/27 13:45:34;;;;;;;2.53;0.70;;;8.40;93.10;;;;;;4946979;29;20035;-75
2023/03/27 13:48:44;;;;;;;4.53;0.88;;;8.70;91.90;;;;;;4963857;28;20047;-75
2023/03/27 13:51:41;;;;;;;7.78;1.05;;;8.50;92.20;;;;;;4946772;29;20432;-75
2023/03/27 13:54:38;;;;;;;8.18;1.50;;;8.40;91.40;;;;;;4917209;28;20107;-76
2023/03/27 13:57:39;;;;;;;3.47;1.13;;;8.20;92.20;;;;;;4946234;29;20051;-74
2023/03/27 14:00:14;;;;;;;5.47;1.10;;;7.80;93.10;;;;;;4963233;28;20046;-73
2023/03/27 14:03:09;;;;;;;4.88;1.27;;;7.60;94.00;;;;;;4965043;28;20051;-74
2023/03/27 14:06:08;;;;;;;7.78;1.30;;;7.60;94.60;;;;;;4954159;28;20031;-75
2023/03/27 14:08:41;;;;;;;4.07;0.90;;;7.90;96.00;;;;;;4940141;29;20067;-74
2023/03/27 14:12:00;;;;;;;3.00;0.80;;;9.20;94.80;;;;;;4953487;28;20321;-74
2023/03/27 14:15:08;;;;;;;4.13;1.20;;;10.80;91.20;;;;;;4952873;28;20190;-74
2023/03/27 14:17:55;;;;;;;2.20;0.52;;;10.90;89.10;;;;;;4936109;28;20027;-74
2023/03/27 14:20:29;;;;;;;2.60;0.70;;;13.10;83.90;;;;;;4927649;29;20225;-74
2023/03/27 14:23:04;;;;;;;2.05;0.70;;;15.10;76.90;;;;;;4942542;29;20854;-75
2023/03/27 14:25:47;;;;;;;5.15;1.05;;;16.10;74.70;;;;;;4940989;28;20067;-74
2023/03/27 14:28:44;;;;;;;5.57;1.08;;;17.70;69.90;;;;;;4946579;29;20042;-75
2023/03/27 14:31:13;;;;;;;3.40;1.10;;;17.90;67.70;;;;;;4937262;29;20250;-74
2023/03/27 14:34:01;;;;;;;4.10;1.05;;;17.80;67.90;;;;;;4946460;29;20216;-75
2023/03/27 14:36:32;;;;;;;3.78;0.85;;;16.60;68.80;;;;;;4933979;29;20062;-74
2023/03/27 14:39:13;;;;;;;2.55;0.90;;;15.50;68.80;;;;;;4939167;28;20230;-73
2023/03/27 14:42:02;;;;;;;4.13;1.00;;;13.90;72.60;;;;;;4946739;29;20039;-75
2023/03/27 14:44:31;;;;;;;4.18;1.02;;;11.30;77.20;;;;;;4942692;29;20031;-75
2023/03/27 14:47:10;;;;;;;4.53;0.82;;;10.20;82.30;;;;;;4939571;29;20305;-73
2023/03/27 14:49:45;;;;;;;2.85;0.82;;;10.60;81.10;;;;;;4946981;29;20034;-76
2023/03/27 14:52:20;;;;;;;4.72;0.90;;;10.60;81.90;;;;;;4946386;28;20094;-77
2023/03/27 14:55:19;;;;;;;2.83;1.23;;;10.60;81.90;;;;;;4948729;29;20282;-74
2023/03/27 14:57:56;;;;;;;4.25;0.93;;;10.60;81.80;;;;;;4946469;29;20027;-76
2023/03/27 15:00:33;;;;;;;5.07;0.90;;;10.80;80.90;;;;;;4945988;28;20035;-74
2023/03/27 15:03:06;;;;;;;4.10;1.00;;;11.20;80.10;;;;;;4962844;28;20214;-74
2023/03/27 15:05:32;;;;;;;4.72;1.00;;;11.80;78.40;;;;;;4946501;28;20027;-73
2023/03/27 15:08:01;;;;;;;4.80;1.00;;;12.30;77.30;;;;;;4944312;29;20030;-74
2023/03/27 15:10:51;;;;;;;3.97;0.70;;;12.20;76.80;;;;;;4949816;28;20241;-75
2023/03/27 15:13:38;;;;;;;3.10;0.80;;;12.20;76.70;;;;;;4946504;29;20027;-75
2023/03/27 15:16:16;;;;;;;3.65;0.70;;;12.20;76.90;;;;;;4929903;29;20050;-76
2023/03/27 15:18:51;;;;;;;5.15;1.00;;;11.90;76.40;;;;;;4940418;29;20028;-75
2023/03/27 15:21:37;;;;;;;3.50;1.00;;;11.00;78.50;;;;;;4959144;28;20051;-74
2023/03/27 15:24:09;;;;;;;6.45;1.58;;;10.50;81.20;;;;;;4946387;28;20125;-75
2023/03/27 15:26:35;;;;;;;4.88;1.55;;;9.60;83.20;;;;;;4963850;28;20045;-75
2023/03/27 15:29:07;;;;;;;4.72;0.90;;;9.10;84.60;;;;;;4963109;28;20203;-76
2023/03/27 15:31:35;;;;;;;9.25;1.40;;;8.60;86.70;;;;;;4963066;28;20035;-76
2023/03/27 15:34:11;;;;;;;10.57;1.42;;;8.30;89.50;;;;;;4963301;28;20035;-76
2023/03/27 15:36:39;;;;;;;4.07;1.10;;;8.10;91.00;;;;;;4963597;28;20061;-75
2023/03/27 15:39:06;;;;;;;4.22;1.20;;;7.90;91.80;;;;;;4966368;28;20035;-75
2023/03/27 15:41:31;;;;;;;2.42;1.02;;;7.90;92.80;;;;;;4966708;28;20074;-74
2023/03/27 15:44:01;;;;;;;4.65;1.33;;;7.90;92.60;;;;;;4966719;28;20260;-75
2023/03/27 15:46:33;;;;;;;2.22;0.63;;;7.80;91.30;;;;;;4966355;28;20042;-75
2023/03/27 15:49:19;;;;;;;2.95;0.90;;;7.00;93.80;;;;;;4966864;28;20066;-73
2023/03/27 15:51:44;;;;;;;4.38;0.90;;;6.40;95.10;;;;;;4966581;28;20039;-75
2023/03/27 15:54:22;;;;;;;3.03;0.90;;;6.20;96.10;;;;;;4965866;28;20140;-75
2023/03/27 15:56:48;;;;;;;2.63;1.02;;;6.20;97.60;;;;;;4966708;29;20035;-74
2023/03/27 15:59:15;;;;;;;4.07;1.10;;;6.30;98.00;;;;;;4952831;28;20336;-75
2023/03/27 16:01:50;;;;;;;6.03;1.48;;;6.30;97.00;;;;;;4949419;29;20081;-74
2023/03/27 16:04:26;;;;;;;3.35;1.05;;;6.50;95.90;;;;;;4965410;28;20064;-74
2023/03/27 16:07:14;;;;;;;4.03;1.10;;;6.60;94.90;;;;;;4966221;28;20035;-74
2023/03/27 16:10:04;;;;;;;4.07;1.48;;;6.50;94.70;;;;;;4959978;28;20035;-76
2023/03/27 16:12:42;;;;;;;2.75;1.10;;;6.40;95.40;;;;;;4947966;28;20039;-75
2023/03/27 16:15:30;;;;;;;3.85;1.10;;;6.30;95.70;;;;;;4930052;29;20095;-76
2023/03/27 16:17:58;;;;;;;3.30;1.05;;;6.40;95.70;;;;;;4966233;28;20317;-75
2023/03/27 16:20:24;;;;;;;4.07;1.27;;;6.60;95.90;;;;;;4960194;28;20328;-74
2023/03/27 16:22:51;;;;;;;3.53;1.00;;;6.50;95.60;;;;;;4934400;29;20110;-75
2023/03/27 16:25:17;;;;;;;2.83;0.90;;;6.50;96.30;;;;;;4954801;28;20036;-74
2023/03/27 16:27:48;;;;;;;3.30;0.77;;;6.50;95.50;;;;;;4965879;28;20042;-74
2023/03/27 16:30:31;;;;;;;2.58;1.02;;;7.00;95.10;;;;;;4948132;28;20037;-76
2023/03/27 16:32:58;;;;;;;2.30;0.70;;;7.60;94.60;;;;;;4962787;28;20032;-77
2023/03/27 16:35:25;;;;;;;3.28;0.80;;;7.70;93.80;;;;;;4963185;28;20072;-75
2023/03/27 16:37:52;;;;;;;1.77;0.63;;;7.10;94.70;;;;;;4964805;28;20031;-74
2023/03/27 16:40:18;;;;;;;2.20;0.80;;;6.80;95.30;;;;;;4965205;28;20038;-76
2023/03/27 16:42:44;;;;;;;3.13;0.93;;;6.30;96.20;;;;;;4948768;29;20023;-74
2023/03/27 16:45:10;;;;;;;2.35;0.73;;;6.20;96.80;;;;;;4965118;28;20058;-74
2023/03/27 16:47:36;;;;;;;3.20;0.77;;;6.00;97.00;;;;;;4965870;28;20039;-74
2023/03/27 16:50:03;;;;;;;2.60;0.80;;;6.00;97.20;;;;;;4964942;28;20031;-74
2023/03/27 16:52:30;;;;;;;3.38;0.70;;;5.90;97.20;;;;;;4964222;28;20070;-75
2023/03/27 16:54:55;;;;;;;4.97;0.98;;;5.90;97.20;;;;;;4948415;29;20047;-75
2023/03/27 16:57:23;;;;;;;2.53;0.90;;;6.10;97.60;;;;;;4965325;28;20030;-75
2023/03/27 16:59:48;;;;;;;3.88;1.20;;;6.30;97.50;;;;;;4965234;28;20049;-74
2023/03/27 17:02:14;;;;;;;2.22;0.82;;;6.70;97.00;;;;;;4964331;28;20288;-74
2023/03/27 17:04:42;;;;;;;3.22;1.23;;;6.80;96.80;;;;;;4965394;28;20047;-75
2023/03/27 17:07:09;;;;;;;3.30;0.90;;;6.90;96.60;;;;;;4947903;29;20290;-75
2023/03/27 17:09:35;;;;;;;4.00;0.73;;;6.80;95.70;;;;;;4934517;29;20035;-72
2023/03/27 17:12:01;;;;;;;2.95;0.60;;;6.70;96.40;;;;;;4956339;29;20305;-74
2023/03/27 17:14:27;;;;;;;3.45;1.00;;;6.50;96.30;;;;;;4964392;28;20283;-75
2023/03/27 17:16:53;;;;;;;2.55;0.95;;;6.20;97.00;;;;;;4965061;28;20027;-71
2023/03/27 17:19:19;;;;;;;3.75;0.68;;;5.90;97.40;;;;;;4964464;28;20035;-74
2023/03/27 17:21:44;;;;;;;3.35;0.80;;;5.70;97.70;;;;;;4964878;28;20078;-74
2023/03/27 17:24:13;;;;;;;4.07;1.50;;;5.40;98.00;;;;;;4964692;28;20054;-78
2023/03/27 17:26:39;;;;;;;2.22;0.80;;;5.30;98.40;;;;;;4928645;29;20031;-73
2023/03/27 17:29:07;;;;;;;3.92;1.10;;;5.10;99.10;;;;;;4942144;28;20105;-72
2023/03/27 17:31:33;;;;;;;3.35;0.93;;;5.10;99.40;;;;;;4947707;29;20209;-75
2023/03/27 17:33:59;;;;;;;3.95;1.20;;;5.00;99.80;;;;;;4947814;29;20098;-76
2023/03/27 17:36:25;;;;;;;3.45;1.20;;;4.90;99.90;;;;;;4964186;28;20035;-74
2023/03/27 17:38:54;;;;;;;5.28;1.63;;;4.80;99.90;;;;;;4964588;28;20033;-73
2023/03/27 17:41:20;;;;;;;3.28;1.20;;;4.80;99.90;;;;;;4963713;28;20301;-75
2023/03/27 17:43:46;;;;;;;4.68;1.48;;;4.70;99.90;;;;;;4964754;28;20066;-76
2023/03/27 17:46:13;;;;;;;3.83;1.52;;;4.50;99.90;;;;;;4963700;28;20032;-72
2023/03/27 17:48:39;;;;;;;3.22;1.30;;;4.50;99.90;;;;;;4964935;28;20030;-76
2023/03/27 17:51:05;;;;;;;6.40;1.55;;;4.40;99.90;;;;;;4964196;28;20031;-73
2023/03/27 17:53:34;;;;;;;3.70;1.50;;;4.40;99.90;;;;;;4947579;29;20153;-78
2023/03/27 17:56:00;;;;;;;3.03;1.40;;;4.30;99.90;;;;;;4967649;28;20117;-74
2023/03/27 17:58:27;;;;;;;5.10;1.85;;;4.30;99.90;;;;;;4964639;28;20035;-76
2023/03/27 18:00:53;;;;;;;5.40;2.10;;;4.20;99.90;;;;;;4928150;29;20059;-75
2023/03/27 18:03:20;;;;;;;6.05;2.25;;;4.10;99.90;;;;;;4952407;28;20089;-75
2023/03/27 18:05:45;;;;;;;5.25;1.80;;;4.00;99.90;;;;;;4964355;28;20051;-74
2023/03/27 18:08:13;;;;;;;4.30;1.63;;;4.00;99.90;;;;;;4943466;29;20031;-73
2023/03/27 18:10:44;;;;;;;4.90;2.30;;;3.90;99.90;;;;;;4958222;28;20031;-74
2023/03/27 18:13:10;;;;;;;6.35;2.00;;;4.00;99.90;;;;;;4931936;29;20036;-75
2023/03/27 18:15:39;;;;;;;6.28;2.30;;;3.90;99.90;;;;;;4957546;28;20059;-74
2023/03/27 18:18:06;;;;;;;5.55;2.00;;;3.90;99.90;;;;;;4931265;29;20102;-74
2023/03/27 18:20:31;;;;;;;6.10;2.03;;;3.90;99.90;;;;;;4957965;28;20202;-74
2023/03/27 18:22:57;;;;;;;6.38;2.17;;;3.90;99.90;;;;;;4946875;29;20042;-76
2023/03/27 18:25:23;;;;;;;3.35;1.73;;;3.90;99.90;;;;;;4946361;29;20042;-73
2023/03/27 18:27:49;;;;;;;4.85;1.92;;;3.80;99.90;;;;;;4946698;29;20026;-74
2023/03/27 18:30:16;;;;;;;4.80;2.17;;;3.90;99.90;;;;;;4962194;28;20023;-74
2023/03/27 18:32:43;;;;;;;5.78;2.17;;;3.80;99.90;;;;;;4964255;28;20058;-74
2023/03/27 18:35:14;;;;;;;6.43;1.73;;;3.90;99.90;;;;;;4963491;28;20019;-74
2023/03/27 18:37:42;;;;;;;6.90;2.20;;;3.90;99.90;;;;;;4946858;29;20213;-73
2023/03/27 18:40:10;;;;;;;5.70;2.00;;;3.90;99.90;;;;;;4963270;28;20035;-73
2023/03/27 18:42:39;;;;;;;4.20;2.40;;;3.90;99.90;;;;;;4963886;28;20043;-74
2023/03/27 18:45:07;;;;;;;6.85;2.60;;;3.90;99.90;;;;;;4934231;29;20184;-76
2023/03/27 18:47:35;;;;;;;3.92;1.88;;;3.80;99.90;;;;;;4943643;29;20309;-76
2023/03/27 18:50:01;;;;;;;3.38;1.92;;;3.80;99.90;;;;;;4946950;29;20205;-74